sensor_id;sensor_type;location;lat;lon;timestamp;P1;durP1;ratioP1;P2;durP2;ratioP2
40955;SDS011;26687;48.254;11.454;2022-10-17T00:00:07;3.20;;;2.90;;
40955;SDS011;26687;48.254;11.454;2022-10-17T00:03:07;3.38;;;3.05;;
40955;SDS011;26687;48.254;11.454;2022-10-17T00:06:09;4.93;;;2.85;;
40955;SDS011;26687;48.254;11.454;2022-10-17T00:09:09;3.30;;;3.00;;
40955;SDS011;26687;48.254;11.454;2022-10-17T00:12:10;3.53;;;3.00;;
40955;SDS011;26687;48.254;11.454;2022-10-17T00:15:13;3.37;;;3.07;;
40955;SDS011;26687;48.254;11.454;2022-10-17T00:18:13;4.00;;;3.15;;
40955;SDS011;26687;48.254;11.454;2022-10-17T00:21:17;5.03;;;2.77;;
40955;SDS011;26687;48.254;11.454;2022-10-17T00:24:18;2.80;;;2.60;;
40955;SDS011;26687;48.254;11.454;2022-10-17T00:27:18;4.00;;;2.70;;
40955;SDS011;26687;48.254;11.454;2022-10-17T00:30:18;5.10;;;2.93;;
40955;SDS011;26687;48.254;11.454;2022-10-17T00:33:18;3.77;;;2.87;;
40955;SDS011;26687;48.254;11.454;2022-10-17T00:36:20;3.40;;;3.10;;
40955;SDS011;26687;48.254;11.454;2022-10-17T00:39:20;3.47;;;3.17;;
40955;SDS011;26687;48.254;11.454;2022-10-17T00:42:21;3.10;;;2.33;;
40955;SDS011;26687;48.254;11.454;2022-10-17T00:45:25;2.28;;;1.40;;
40955;SDS011;26687;48.254;11.454;2022-10-17T00:48:25;1.45;;;1.33;;
40955;SDS011;26687;48.254;11.454;2022-10-17T00:52:00;2.42;;;1.40;;
40955;SDS011;26687;48.254;11.454;2022-10-17T00:54:57;1.20;;;1.10;;
40955;SDS011;26687;48.254;11.454;2022-10-17T00:57:59;1.58;;;1.23;;
40955;SDS011;26687;48.254;11.454;2022-10-17T01:01:00;3.67;;;1.70;;
40955;SDS011;26687;48.254;11.454;2022-10-17T01:04:01;1.73;;;1.30;;
40955;SDS011;26687;48.254;11.454;2022-10-17T01:07:02;1.65;;;1.10;;
40955;SDS011;26687;48.254;11.454;2022-10-17T01:10:02;1.60;;;1.40;;
40955;SDS011;26687;48.254;11.454;2022-10-17T01:13:06;1.40;;;1.27;;
40955;SDS011;26687;48.254;11.454;2022-10-17T01:16:12;2.97;;;1.30;;
40955;SDS011;26687;48.254;11.454;2022-10-17T01:19:27;2.35;;;1.45;;
40955;SDS011;26687;48.254;11.454;2022-10-17T01:22:34;1.42;;;1.33;;
40955;SDS011;26687;48.254;11.454;2022-10-17T01:25:45;1.80;;;1.70;;
40955;SDS011;26687;48.254;11.454;2022-10-17T01:31:47;1.52;;;1.30;;
40955;SDS011;26687;48.254;11.454;2022-10-17T01:38:29;1.60;;;1.40;;
40955;SDS011;26687;48.254;11.454;2022-10-17T01:41:34;2.55;;;1.40;;
40955;SDS011;26687;48.254;11.454;2022-10-17T01:47:43;2.88;;;1.77;;
40955;SDS011;26687;48.254;11.454;2022-10-17T01:50:47;3.13;;;1.80;;
40955;SDS011;26687;48.254;11.454;2022-10-17T01:53:54;1.42;;;1.30;;
40955;SDS011;26687;48.254;11.454;2022-10-17T01:56:57;2.67;;;1.42;;
40955;SDS011;26687;48.254;11.454;2022-10-17T01:59:58;1.83;;;1.50;;
40955;SDS011;26687;48.254;11.454;2022-10-17T02:03:00;1.55;;;1.45;;
40955;SDS011;26687;48.254;11.454;2022-10-17T02:06:01;1.90;;;1.40;;
40955;SDS011;26687;48.254;11.454;2022-10-17T02:09:13;1.80;;;1.47;;
40955;SDS011;26687;48.254;11.454;2022-10-17T02:21:57;2.35;;;2.15;;
40955;SDS011;26687;48.254;11.454;2022-10-17T02:31:16;2.22;;;2.03;;
40955;SDS011;26687;48.254;11.454;2022-10-17T02:34:20;2.50;;;2.30;;
40955;SDS011;26687;48.254;11.454;2022-10-17T02:37:24;4.47;;;2.30;;
40955;SDS011;26687;48.254;11.454;2022-10-17T02:40:25;2.17;;;2.00;;
40955;SDS011;26687;48.254;11.454;2022-10-17T02:43:25;2.28;;;2.00;;
40955;SDS011;26687;48.254;11.454;2022-10-17T02:46:25;2.90;;;2.35;;
40955;SDS011;26687;48.254;11.454;2022-10-17T02:49:27;3.50;;;2.08;;
40955;SDS011;26687;48.254;11.454;2022-10-17T02:52:49;2.30;;;2.10;;
40955;SDS011;26687;48.254;11.454;2022-10-17T02:55:55;2.80;;;2.20;;
40955;SDS011;26687;48.254;11.454;2022-10-17T02:58:57;3.78;;;2.28;;
40955;SDS011;26687;48.254;11.454;2022-10-17T03:02:01;2.70;;;2.50;;
40955;SDS011;26687;48.254;11.454;2022-10-17T03:05:01;3.45;;;2.67;;
40955;SDS011;26687;48.254;11.454;2022-10-17T03:08:01;3.13;;;2.30;;
40955;SDS011;26687;48.254;11.454;2022-10-17T03:11:02;3.08;;;2.40;;
40955;SDS011;26687;48.254;11.454;2022-10-17T03:14:02;2.93;;;2.40;;
40955;SDS011;26687;48.254;11.454;2022-10-17T03:17:02;2.92;;;2.63;;
40955;SDS011;26687;48.254;11.454;2022-10-17T03:20:03;6.13;;;2.60;;
40955;SDS011;26687;48.254;11.454;2022-10-17T03:23:03;2.58;;;2.38;;
40955;SDS011;26687;48.254;11.454;2022-10-17T03:26:04;4.47;;;2.50;;
40955;SDS011;26687;48.254;11.454;2022-10-17T03:29:05;3.97;;;2.88;;
40955;SDS011;26687;48.254;11.454;2022-10-17T03:32:05;2.97;;;2.67;;
40955;SDS011;26687;48.254;11.454;2022-10-17T03:35:05;2.73;;;2.53;;
40955;SDS011;26687;48.254;11.454;2022-10-17T03:38:05;5.45;;;2.78;;
40955;SDS011;26687;48.254;11.454;2022-10-17T03:41:06;4.27;;;3.30;;
40955;SDS011;26687;48.254;11.454;2022-10-17T03:44:06;3.13;;;2.90;;
40955;SDS011;26687;48.254;11.454;2022-10-17T03:47:06;3.13;;;2.77;;
40955;SDS011;26687;48.254;11.454;2022-10-17T03:50:07;2.97;;;2.60;;
40955;SDS011;26687;48.254;11.454;2022-10-17T03:53:07;3.42;;;3.13;;
40955;SDS011;26687;48.254;11.454;2022-10-17T03:59:14;3.90;;;2.95;;
40955;SDS011;26687;48.254;11.454;2022-10-17T04:02:14;3.90;;;2.80;;
40955;SDS011;26687;48.254;11.454;2022-10-17T04:05:14;4.00;;;2.50;;
40955;SDS011;26687;48.254;11.454;2022-10-17T04:08:14;3.40;;;3.07;;
40955;SDS011;26687;48.254;11.454;2022-10-17T04:11:16;4.17;;;2.67;;
40955;SDS011;26687;48.254;11.454;2022-10-17T04:14:17;3.05;;;2.85;;
40955;SDS011;26687;48.254;11.454;2022-10-17T04:17:17;3.43;;;2.47;;
40955;SDS011;26687;48.254;11.454;2022-10-17T04:20:17;3.53;;;2.70;;
40955;SDS011;26687;48.254;11.454;2022-10-17T04:23:17;2.67;;;2.47;;
40955;SDS011;26687;48.254;11.454;2022-10-17T04:26:18;3.78;;;3.42;;
40955;SDS011;26687;48.254;11.454;2022-10-17T04:29:18;5.03;;;2.47;;
40955;SDS011;26687;48.254;11.454;2022-10-17T04:32:18;3.30;;;2.93;;
40955;SDS011;26687;48.254;11.454;2022-10-17T04:35:19;3.65;;;2.40;;
40955;SDS011;26687;48.254;11.454;2022-10-17T04:38:19;3.92;;;2.92;;
40955;SDS011;26687;48.254;11.454;2022-10-17T04:41:19;4.80;;;2.30;;
40955;SDS011;26687;48.254;11.454;2022-10-17T04:44:20;2.53;;;2.33;;
40955;SDS011;26687;48.254;11.454;2022-10-17T04:47:20;3.40;;;2.57;;
40955;SDS011;26687;48.254;11.454;2022-10-17T04:50:20;2.70;;;2.50;;
40955;SDS011;26687;48.254;11.454;2022-10-17T04:53:21;3.50;;;2.78;;
40955;SDS011;26687;48.254;11.454;2022-10-17T04:56:22;2.60;;;2.40;;
40955;SDS011;26687;48.254;11.454;2022-10-17T04:59:22;2.92;;;2.15;;
40955;SDS011;26687;48.254;11.454;2022-10-17T05:02:22;3.00;;;2.40;;
40955;SDS011;26687;48.254;11.454;2022-10-17T05:05:23;3.15;;;2.22;;
40955;SDS011;26687;48.254;11.454;2022-10-17T05:08:23;3.10;;;2.78;;
40955;SDS011;26687;48.254;11.454;2022-10-17T05:11:24;3.42;;;2.45;;
40955;SDS011;26687;48.254;11.454;2022-10-17T05:14:24;2.80;;;2.42;;
40955;SDS011;26687;48.254;11.454;2022-10-17T05:17:25;3.53;;;2.37;;
40955;SDS011;26687;48.254;11.454;2022-10-17T05:20:25;4.77;;;2.70;;
40955;SDS011;26687;48.254;11.454;2022-10-17T05:23:26;3.55;;;2.60;;
40955;SDS011;26687;48.254;11.454;2022-10-17T05:26:28;2.85;;;2.10;;
40955;SDS011;26687;48.254;11.454;2022-10-17T05:29:28;4.15;;;2.28;;
40955;SDS011;26687;48.254;11.454;2022-10-17T05:32:28;4.03;;;2.13;;
40955;SDS011;26687;48.254;11.454;2022-10-17T05:35:28;4.73;;;2.30;;
40955;SDS011;26687;48.254;11.454;2022-10-17T05:38:28;3.03;;;2.13;;
40955;SDS011;26687;48.254;11.454;2022-10-17T05:41:29;2.40;;;2.17;;
40955;SDS011;26687;48.254;11.454;2022-10-17T05:44:29;3.13;;;2.10;;
40955;SDS011;26687;48.254;11.454;2022-10-17T05:47:29;2.70;;;2.00;;
40955;SDS011;26687;48.254;11.454;2022-10-17T05:50:29;2.27;;;2.00;;
40955;SDS011;26687;48.254;11.454;2022-10-17T05:53:30;2.40;;;2.20;;
40955;SDS011;26687;48.254;11.454;2022-10-17T05:56:31;3.50;;;2.13;;
40955;SDS011;26687;48.254;11.454;2022-10-17T05:59:31;3.10;;;2.13;;
40955;SDS011;26687;48.254;11.454;2022-10-17T06:02:31;4.22;;;2.22;;
40955;SDS011;26687;48.254;11.454;2022-10-17T06:05:34;4.47;;;2.80;;
40955;SDS011;26687;48.254;11.454;2022-10-17T06:08:34;3.03;;;2.67;;
40955;SDS011;26687;48.254;11.454;2022-10-17T06:11:35;2.90;;;2.60;;
40955;SDS011;26687;48.254;11.454;2022-10-17T06:14:35;4.18;;;2.67;;
40955;SDS011;26687;48.254;11.454;2022-10-17T06:17:35;3.70;;;2.50;;
40955;SDS011;26687;48.254;11.454;2022-10-17T06:20:35;6.67;;;2.50;;
40955;SDS011;26687;48.254;11.454;2022-10-17T06:23:36;4.00;;;2.47;;
40955;SDS011;26687;48.254;11.454;2022-10-17T06:26:36;3.80;;;2.53;;
40955;SDS011;26687;48.254;11.454;2022-10-17T06:29:36;2.47;;;2.07;;
40955;SDS011;26687;48.254;11.454;2022-10-17T06:32:36;3.87;;;2.27;;
40955;SDS011;26687;48.254;11.454;2022-10-17T06:35:37;3.22;;;2.35;;
40955;SDS011;26687;48.254;11.454;2022-10-17T06:38:37;3.25;;;2.38;;
40955;SDS011;26687;48.254;11.454;2022-10-17T06:41:37;4.03;;;1.87;;
40955;SDS011;26687;48.254;11.454;2022-10-17T06:44:39;3.03;;;2.57;;
40955;SDS011;26687;48.254;11.454;2022-10-17T06:47:40;3.33;;;2.80;;
40955;SDS011;26687;48.254;11.454;2022-10-17T06:50:40;3.20;;;2.55;;
40955;SDS011;26687;48.254;11.454;2022-10-17T06:53:40;7.00;;;3.15;;
40955;SDS011;26687;48.254;11.454;2022-10-17T06:56:41;3.43;;;2.50;;
40955;SDS011;26687;48.254;11.454;2022-10-17T06:59:41;3.88;;;2.42;;
40955;SDS011;26687;48.254;11.454;2022-10-17T07:02:41;3.88;;;2.60;;
40955;SDS011;26687;48.254;11.454;2022-10-17T07:05:41;4.32;;;2.97;;
40955;SDS011;26687;48.254;11.454;2022-10-17T07:08:42;6.47;;;2.80;;
40955;SDS011;26687;48.254;11.454;2022-10-17T07:11:43;5.95;;;2.78;;
40955;SDS011;26687;48.254;11.454;2022-10-17T07:14:43;8.25;;;3.20;;
40955;SDS011;26687;48.254;11.454;2022-10-17T07:17:49;5.30;;;3.22;;
40955;SDS011;26687;48.254;11.454;2022-10-17T07:20:52;4.68;;;3.30;;
40955;SDS011;26687;48.254;11.454;2022-10-17T07:23:53;6.32;;;3.53;;
40955;SDS011;26687;48.254;11.454;2022-10-17T07:26:53;5.83;;;3.53;;
40955;SDS011;26687;48.254;11.454;2022-10-17T07:29:53;7.53;;;3.63;;
40955;SDS011;26687;48.254;11.454;2022-10-17T07:32:53;4.30;;;3.65;;
40955;SDS011;26687;48.254;11.454;2022-10-17T07:35:54;5.53;;;3.50;;
40955;SDS011;26687;48.254;11.454;2022-10-17T07:38:54;4.83;;;3.47;;
40955;SDS011;26687;48.254;11.454;2022-10-17T07:41:54;4.70;;;3.00;;
40955;SDS011;26687;48.254;11.454;2022-10-17T07:44:55;5.68;;;3.03;;
40955;SDS011;26687;48.254;11.454;2022-10-17T07:47:56;4.10;;;2.50;;
40955;SDS011;26687;48.254;11.454;2022-10-17T07:50:56;3.92;;;2.28;;
40955;SDS011;26687;48.254;11.454;2022-10-17T07:53:56;4.03;;;2.93;;
40955;SDS011;26687;48.254;11.454;2022-10-17T07:56:56;7.17;;;2.93;;
40955;SDS011;26687;48.254;11.454;2022-10-17T07:59:57;6.53;;;3.23;;
40955;SDS011;26687;48.254;11.454;2022-10-17T08:02:57;5.10;;;3.13;;
40955;SDS011;26687;48.254;11.454;2022-10-17T08:05:58;6.28;;;3.30;;
40955;SDS011;26687;48.254;11.454;2022-10-17T08:08:58;4.30;;;3.80;;
40955;SDS011;26687;48.254;11.454;2022-10-17T08:12:00;4.30;;;3.03;;
40955;SDS011;26687;48.254;11.454;2022-10-17T08:15:00;6.05;;;3.40;;
40955;SDS011;26687;48.254;11.454;2022-10-17T08:18:00;7.33;;;3.07;;
40955;SDS011;26687;48.254;11.454;2022-10-17T08:21:02;3.75;;;2.70;;
40955;SDS011;26687;48.254;11.454;2022-10-17T08:24:05;7.28;;;2.60;;
40955;SDS011;26687;48.254;11.454;2022-10-17T08:27:05;3.28;;;2.20;;
40955;SDS011;26687;48.254;11.454;2022-10-17T08:30:10;4.03;;;2.72;;
40955;SDS011;26687;48.254;11.454;2022-10-17T08:33:10;4.57;;;2.53;;
40955;SDS011;26687;48.254;11.454;2022-10-17T08:36:11;3.77;;;2.63;;
40955;SDS011;26687;48.254;11.454;2022-10-17T08:39:12;3.45;;;2.30;;
40955;SDS011;26687;48.254;11.454;2022-10-17T08:45:19;4.55;;;2.50;;
40955;SDS011;26687;48.254;11.454;2022-10-17T08:48:23;3.92;;;2.22;;
40955;SDS011;26687;48.254;11.454;2022-10-17T08:51:26;2.58;;;2.38;;
40955;SDS011;26687;48.254;11.454;2022-10-17T08:54:37;5.20;;;2.42;;
40955;SDS011;26687;48.254;11.454;2022-10-17T08:57:39;3.63;;;2.47;;
40955;SDS011;26687;48.254;11.454;2022-10-17T09:00:41;2.80;;;2.08;;
40955;SDS011;26687;48.254;11.454;2022-10-17T09:07:03;3.88;;;2.00;;
40955;SDS011;26687;48.254;11.454;2022-10-17T09:10:09;3.20;;;2.20;;
40955;SDS011;26687;48.254;11.454;2022-10-17T09:13:32;3.78;;;2.35;;
40955;SDS011;26687;48.254;11.454;2022-10-17T09:16:39;4.25;;;2.05;;
40955;SDS011;26687;48.254;11.454;2022-10-17T09:20:07;4.05;;;2.08;;
40955;SDS011;26687;48.254;11.454;2022-10-17T09:23:09;2.90;;;1.92;;
40955;SDS011;26687;48.254;11.454;2022-10-17T09:26:11;3.25;;;2.00;;
40955;SDS011;26687;48.254;11.454;2022-10-17T09:29:14;3.72;;;2.10;;
40955;SDS011;26687;48.254;11.454;2022-10-17T09:32:18;2.67;;;2.10;;
40955;SDS011;26687;48.254;11.454;2022-10-17T09:35:20;3.90;;;1.80;;
40955;SDS011;26687;48.254;11.454;2022-10-17T09:38:22;5.38;;;1.90;;
40955;SDS011;26687;48.254;11.454;2022-10-17T09:41:27;5.05;;;2.40;;
40955;SDS011;26687;48.254;11.454;2022-10-17T09:47:31;1.97;;;1.63;;
40955;SDS011;26687;48.254;11.454;2022-10-17T09:50:33;2.58;;;2.05;;
40955;SDS011;26687;48.254;11.454;2022-10-17T09:53:41;3.15;;;1.88;;
40955;SDS011;26687;48.254;11.454;2022-10-17T09:56:55;4.50;;;2.08;;
40955;SDS011;26687;48.254;11.454;2022-10-17T09:59:58;3.83;;;1.95;;
40955;SDS011;26687;48.254;11.454;2022-10-17T10:06:18;3.72;;;1.95;;
40955;SDS011;26687;48.254;11.454;2022-10-17T10:09:20;3.63;;;1.77;;
40955;SDS011;26687;48.254;11.454;2022-10-17T10:12:28;3.75;;;1.80;;
40955;SDS011;26687;48.254;11.454;2022-10-17T10:15:33;2.47;;;1.88;;
40955;SDS011;26687;48.254;11.454;2022-10-17T10:18:34;3.28;;;2.13;;
40955;SDS011;26687;48.254;11.454;2022-10-17T10:21:35;2.38;;;2.17;;
40955;SDS011;26687;48.254;11.454;2022-10-17T10:28:09;1.90;;;1.65;;
40955;SDS011;26687;48.254;11.454;2022-10-17T10:31:09;2.30;;;1.42;;
40955;SDS011;26687;48.254;11.454;2022-10-17T10:34:12;2.23;;;1.60;;
40955;SDS011;26687;48.254;11.454;2022-10-17T10:37:18;1.70;;;1.60;;
40955;SDS011;26687;48.254;11.454;2022-10-17T10:40:19;2.90;;;1.73;;
40955;SDS011;26687;48.254;11.454;2022-10-17T10:49:31;4.22;;;1.60;;
40955;SDS011;26687;48.254;11.454;2022-10-17T10:52:32;1.83;;;1.58;;
40955;SDS011;26687;48.254;11.454;2022-10-17T10:55:35;3.65;;;1.48;;
40955;SDS011;26687;48.254;11.454;2022-10-17T11:01:57;2.47;;;1.50;;
40955;SDS011;26687;48.254;11.454;2022-10-17T11:11:31;2.60;;;1.50;;
40955;SDS011;26687;48.254;11.454;2022-10-17T11:14:36;1.90;;;1.50;;
40955;SDS011;26687;48.254;11.454;2022-10-17T11:17:40;4.28;;;1.58;;
40955;SDS011;26687;48.254;11.454;2022-10-17T11:20:55;1.70;;;1.40;;
40955;SDS011;26687;48.254;11.454;2022-10-17T11:24:42;1.40;;;1.30;;
40955;SDS011;26687;48.254;11.454;2022-10-17T11:27:21;2.08;;;1.50;;
40955;SDS011;26687;48.254;11.454;2022-10-17T11:30:22;2.05;;;1.67;;
40955;SDS011;26687;48.254;11.454;2022-10-17T11:33:27;4.30;;;1.50;;
40955;SDS011;26687;48.254;11.454;2022-10-17T11:36:30;2.17;;;1.83;;
40955;SDS011;26687;48.254;11.454;2022-10-17T11:42:44;3.10;;;1.67;;
40955;SDS011;26687;48.254;11.454;2022-10-17T11:45:47;2.30;;;1.67;;
40955;SDS011;26687;48.254;11.454;2022-10-17T11:51:54;2.17;;;1.40;;
40955;SDS011;26687;48.254;11.454;2022-10-17T11:55:04;1.60;;;1.50;;
40955;SDS011;26687;48.254;11.454;2022-10-17T12:01:31;2.72;;;1.40;;
40955;SDS011;26687;48.254;11.454;2022-10-17T12:10:38;1.98;;;1.40;;
40955;SDS011;26687;48.254;11.454;2022-10-17T12:13:51;3.05;;;1.58;;
40955;SDS011;26687;48.254;11.454;2022-10-17T12:16:52;1.50;;;1.38;;
40955;SDS011;26687;48.254;11.454;2022-10-17T12:19:52;4.43;;;1.73;;
40955;SDS011;26687;48.254;11.454;2022-10-17T12:26:11;1.48;;;1.38;;
40955;SDS011;26687;48.254;11.454;2022-10-17T12:29:25;2.47;;;1.42;;
40955;SDS011;26687;48.254;11.454;2022-10-17T12:32:30;1.77;;;1.67;;
40955;SDS011;26687;48.254;11.454;2022-10-17T12:35:34;2.08;;;1.20;;
40955;SDS011;26687;48.254;11.454;2022-10-17T12:38:35;2.65;;;1.67;;
40955;SDS011;26687;48.254;11.454;2022-10-17T12:44:38;3.22;;;1.50;;
40955;SDS011;26687;48.254;11.454;2022-10-17T12:47:38;3.13;;;1.50;;
40955;SDS011;26687;48.254;11.454;2022-10-17T12:56:57;1.57;;;1.20;;
40955;SDS011;26687;48.254;11.454;2022-10-17T12:59:59;1.83;;;1.33;;
40955;SDS011;26687;48.254;11.454;2022-10-17T13:03:11;1.50;;;1.40;;
40955;SDS011;26687;48.254;11.454;2022-10-17T13:06:18;1.75;;;1.63;;
40955;SDS011;26687;48.254;11.454;2022-10-17T13:09:27;4.03;;;1.83;;
40955;SDS011;26687;48.254;11.454;2022-10-17T13:12:28;1.73;;;1.48;;
40955;SDS011;26687;48.254;11.454;2022-10-17T13:15:28;1.70;;;1.53;;
40955;SDS011;26687;48.254;11.454;2022-10-17T13:18:29;1.63;;;1.50;;
40955;SDS011;26687;48.254;11.454;2022-10-17T13:21:29;1.40;;;1.30;;
40955;SDS011;26687;48.254;11.454;2022-10-17T13:24:39;3.53;;;1.30;;
40955;SDS011;26687;48.254;11.454;2022-10-17T13:27:39;2.60;;;1.70;;
40955;SDS011;26687;48.254;11.454;2022-10-17T13:30:44;2.10;;;1.20;;
40955;SDS011;26687;48.254;11.454;2022-10-17T13:33:44;1.58;;;1.42;;
40955;SDS011;26687;48.254;11.454;2022-10-17T13:36:45;1.77;;;1.60;;
40955;SDS011;26687;48.254;11.454;2022-10-17T13:39:46;3.58;;;1.40;;
40955;SDS011;26687;48.254;11.454;2022-10-17T13:42:47;2.90;;;1.27;;
40955;SDS011;26687;48.254;11.454;2022-10-17T13:45:56;2.58;;;1.55;;
40955;SDS011;26687;48.254;11.454;2022-10-17T13:48:59;2.83;;;1.58;;
40955;SDS011;26687;48.254;11.454;2022-10-17T13:52:15;1.52;;;1.40;;
40955;SDS011;26687;48.254;11.454;2022-10-17T13:55:16;1.40;;;1.30;;
40955;SDS011;26687;48.254;11.454;2022-10-17T13:58:16;1.50;;;1.40;;
40955;SDS011;26687;48.254;11.454;2022-10-17T14:01:17;3.22;;;1.60;;
40955;SDS011;26687;48.254;11.454;2022-10-17T14:04:18;1.92;;;1.48;;
40955;SDS011;26687;48.254;11.454;2022-10-17T14:07:20;1.40;;;1.30;;
40955;SDS011;26687;48.254;11.454;2022-10-17T14:10:30;1.88;;;1.73;;
40955;SDS011;26687;48.254;11.454;2022-10-17T14:13:31;2.97;;;1.45;;
40955;SDS011;26687;48.254;11.454;2022-10-17T14:16:34;5.22;;;1.65;;
40955;SDS011;26687;48.254;11.454;2022-10-17T14:19:35;2.35;;;1.70;;
40955;SDS011;26687;48.254;11.454;2022-10-17T14:22:36;2.95;;;1.60;;
40955;SDS011;26687;48.254;11.454;2022-10-17T14:25:38;5.75;;;1.75;;
40955;SDS011;26687;48.254;11.454;2022-10-17T14:28:39;3.65;;;1.52;;
40955;SDS011;26687;48.254;11.454;2022-10-17T14:31:39;1.27;;;1.17;;
40955;SDS011;26687;48.254;11.454;2022-10-17T14:34:39;1.77;;;1.20;;
40955;SDS011;26687;48.254;11.454;2022-10-17T14:37:41;3.00;;;1.40;;
40955;SDS011;26687;48.254;11.454;2022-10-17T14:40:49;1.90;;;1.80;;
40955;SDS011;26687;48.254;11.454;2022-10-17T14:47:18;3.03;;;1.20;;
40955;SDS011;26687;48.254;11.454;2022-10-17T14:53:19;3.10;;;1.30;;
40955;SDS011;26687;48.254;11.454;2022-10-17T14:56:21;2.20;;;2.00;;
40955;SDS011;26687;48.254;11.454;2022-10-17T14:59:22;2.45;;;2.25;;
40955;SDS011;26687;48.254;11.454;2022-10-17T15:02:24;2.08;;;1.75;;
40955;SDS011;26687;48.254;11.454;2022-10-17T15:05:25;3.38;;;1.77;;
40955;SDS011;26687;48.254;11.454;2022-10-17T15:08:25;3.23;;;1.90;;
40955;SDS011;26687;48.254;11.454;2022-10-17T15:11:25;4.57;;;2.28;;
40955;SDS011;26687;48.254;11.454;2022-10-17T15:14:25;3.33;;;1.70;;
40955;SDS011;26687;48.254;11.454;2022-10-17T15:17:28;1.50;;;1.40;;
40955;SDS011;26687;48.254;11.454;2022-10-17T15:20:28;1.88;;;1.77;;
40955;SDS011;26687;48.254;11.454;2022-10-17T15:23:29;2.75;;;2.03;;
40955;SDS011;26687;48.254;11.454;2022-10-17T15:26:30;2.92;;;2.63;;
40955;SDS011;26687;48.254;11.454;2022-10-17T15:29:31;3.05;;;2.72;;
40955;SDS011;26687;48.254;11.454;2022-10-17T15:32:31;3.33;;;2.47;;
40955;SDS011;26687;48.254;11.454;2022-10-17T15:35:32;3.30;;;2.80;;
40955;SDS011;26687;48.254;11.454;2022-10-17T15:38:32;4.30;;;2.60;;
40955;SDS011;26687;48.254;11.454;2022-10-17T15:41:32;2.55;;;2.20;;
40955;SDS011;26687;48.254;11.454;2022-10-17T15:44:32;4.00;;;2.23;;
40955;SDS011;26687;48.254;11.454;2022-10-17T15:47:33;4.03;;;1.90;;
40955;SDS011;26687;48.254;11.454;2022-10-17T15:50:33;2.20;;;2.00;;
40955;SDS011;26687;48.254;11.454;2022-10-17T15:53:33;3.00;;;2.53;;
40955;SDS011;26687;48.254;11.454;2022-10-17T15:56:35;3.50;;;2.20;;
40955;SDS011;26687;48.254;11.454;2022-10-17T15:59:36;2.90;;;2.60;;
40955;SDS011;26687;48.254;11.454;2022-10-17T16:02:36;4.47;;;2.30;;
40955;SDS011;26687;48.254;11.454;2022-10-17T16:05:36;3.97;;;2.10;;
40955;SDS011;26687;48.254;11.454;2022-10-17T16:08:36;4.30;;;2.33;;
40955;SDS011;26687;48.254;11.454;2022-10-17T16:11:38;3.13;;;2.00;;
40955;SDS011;26687;48.254;11.454;2022-10-17T16:14:38;2.85;;;2.13;;
40955;SDS011;26687;48.254;11.454;2022-10-17T16:17:38;2.72;;;1.90;;
40955;SDS011;26687;48.254;11.454;2022-10-17T16:20:39;3.42;;;2.13;;
40955;SDS011;26687;48.254;11.454;2022-10-17T16:23:39;2.70;;;1.90;;
40955;SDS011;26687;48.254;11.454;2022-10-17T16:26:39;2.60;;;1.80;;
40955;SDS011;26687;48.254;11.454;2022-10-17T16:29:40;4.30;;;2.20;;
40955;SDS011;26687;48.254;11.454;2022-10-17T16:32:40;2.63;;;1.85;;
40955;SDS011;26687;48.254;11.454;2022-10-17T16:35:40;4.28;;;2.30;;
40955;SDS011;26687;48.254;11.454;2022-10-17T16:38:40;4.27;;;2.57;;
40955;SDS011;26687;48.254;11.454;2022-10-17T16:41:41;6.53;;;3.15;;
40955;SDS011;26687;48.254;11.454;2022-10-17T16:44:41;5.38;;;2.80;;
40955;SDS011;26687;48.254;11.454;2022-10-17T16:47:41;4.20;;;2.85;;
40955;SDS011;26687;48.254;11.454;2022-10-17T16:50:41;6.40;;;3.50;;
40955;SDS011;26687;48.254;11.454;2022-10-17T16:53:41;2.20;;;2.00;;
40955;SDS011;26687;48.254;11.454;2022-10-17T16:56:45;3.78;;;2.65;;
40955;SDS011;26687;48.254;11.454;2022-10-17T16:59:45;3.43;;;2.57;;
40955;SDS011;26687;48.254;11.454;2022-10-17T17:02:48;8.55;;;2.90;;
40955;SDS011;26687;48.254;11.454;2022-10-17T17:05:49;8.80;;;2.65;;
40955;SDS011;26687;48.254;11.454;2022-10-17T17:08:49;5.45;;;2.53;;
40955;SDS011;26687;48.254;11.454;2022-10-17T17:11:50;9.23;;;3.57;;
40955;SDS011;26687;48.254;11.454;2022-10-17T17:14:50;9.85;;;2.40;;
40955;SDS011;26687;48.254;11.454;2022-10-17T17:17:50;7.25;;;2.80;;
40955;SDS011;26687;48.254;11.454;2022-10-17T17:20:50;7.70;;;2.50;;
40955;SDS011;26687;48.254;11.454;2022-10-17T17:23:51;4.75;;;2.42;;
40955;SDS011;26687;48.254;11.454;2022-10-17T17:26:52;7.13;;;2.67;;
40955;SDS011;26687;48.254;11.454;2022-10-17T17:29:52;6.63;;;2.45;;
40955;SDS011;26687;48.254;11.454;2022-10-17T17:32:52;3.42;;;2.30;;
40955;SDS011;26687;48.254;11.454;2022-10-17T17:35:54;5.73;;;2.47;;
40955;SDS011;26687;48.254;11.454;2022-10-17T17:38:55;4.78;;;2.78;;
40955;SDS011;26687;48.254;11.454;2022-10-17T17:41:55;6.72;;;2.60;;
40955;SDS011;26687;48.254;11.454;2022-10-17T17:44:55;5.93;;;3.10;;
40955;SDS011;26687;48.254;11.454;2022-10-17T17:47:56;8.00;;;3.23;;
40955;SDS011;26687;48.254;11.454;2022-10-17T17:50:56;7.83;;;3.23;;
40955;SDS011;26687;48.254;11.454;2022-10-17T17:53:56;9.07;;;3.30;;
40955;SDS011;26687;48.254;11.454;2022-10-17T17:56:56;8.55;;;3.25;;
40955;SDS011;26687;48.254;11.454;2022-10-17T17:59:56;7.25;;;2.83;;
40955;SDS011;26687;48.254;11.454;2022-10-17T18:02:57;9.03;;;3.37;;
40955;SDS011;26687;48.254;11.454;2022-10-17T18:05:57;4.37;;;3.03;;
40955;SDS011;26687;48.254;11.454;2022-10-17T18:08:57;6.15;;;3.10;;
40955;SDS011;26687;48.254;11.454;2022-10-17T18:11:58;5.18;;;2.95;;
40955;SDS011;26687;48.254;11.454;2022-10-17T18:14:58;4.10;;;2.80;;
40955;SDS011;26687;48.254;11.454;2022-10-17T18:17:58;5.53;;;3.30;;
40955;SDS011;26687;48.254;11.454;2022-10-17T18:20:59;11.00;;;3.17;;
40955;SDS011;26687;48.254;11.454;2022-10-17T18:23:59;9.32;;;3.38;;
40955;SDS011;26687;48.254;11.454;2022-10-17T18:27:00;4.28;;;3.03;;
40955;SDS011;26687;48.254;11.454;2022-10-17T18:30:00;6.00;;;3.25;;
40955;SDS011;26687;48.254;11.454;2022-10-17T18:33:00;4.93;;;3.20;;
40955;SDS011;26687;48.254;11.454;2022-10-17T18:36:02;6.20;;;3.20;;
40955;SDS011;26687;48.254;11.454;2022-10-17T18:39:02;5.93;;;3.63;;
40955;SDS011;26687;48.254;11.454;2022-10-17T18:42:03;7.72;;;4.70;;
40955;SDS011;26687;48.254;11.454;2022-10-17T18:45:03;7.07;;;4.40;;
40955;SDS011;26687;48.254;11.454;2022-10-17T18:48:04;10.38;;;5.40;;
40955;SDS011;26687;48.254;11.454;2022-10-17T18:51:05;6.43;;;5.63;;
40955;SDS011;26687;48.254;11.454;2022-10-17T18:54:07;6.75;;;5.70;;
40955;SDS011;26687;48.254;11.454;2022-10-17T18:57:10;7.82;;;5.63;;
40955;SDS011;26687;48.254;11.454;2022-10-17T19:00:10;6.90;;;5.47;;
40955;SDS011;26687;48.254;11.454;2022-10-17T19:03:10;8.93;;;5.53;;
40955;SDS011;26687;48.254;11.454;2022-10-17T19:06:11;7.03;;;5.10;;
40955;SDS011;26687;48.254;11.454;2022-10-17T19:09:12;6.47;;;5.00;;
40955;SDS011;26687;48.254;11.454;2022-10-17T19:12:12;5.63;;;5.13;;
40955;SDS011;26687;48.254;11.454;2022-10-17T19:15:13;7.37;;;4.90;;
40955;SDS011;26687;48.254;11.454;2022-10-17T19:18:13;6.95;;;5.57;;
40955;SDS011;26687;48.254;11.454;2022-10-17T19:21:13;8.90;;;5.33;;
40955;SDS011;26687;48.254;11.454;2022-10-17T19:24:17;9.48;;;7.05;;
40955;SDS011;26687;48.254;11.454;2022-10-17T19:27:18;10.30;;;6.97;;
40955;SDS011;26687;48.254;11.454;2022-10-17T19:30:19;10.57;;;9.25;;
40955;SDS011;26687;48.254;11.454;2022-10-17T19:33:19;11.57;;;9.40;;